createdAt,value
2022-07-25T00:05:27.064Z,3.70
2022-07-25T00:13:00.950Z,2.85
2022-07-25T00:20:37.349Z,4.15
2022-07-25T00:28:11.103Z,3.70
2022-07-25T00:35:46.222Z,2.40
2022-07-25T00:50:56.767Z,2.88
2022-07-25T00:58:31.575Z,2.80
2022-07-25T01:06:07.545Z,3.35
2022-07-25T01:13:41.439Z,4.10
2022-07-25T01:21:16.694Z,3.83
2022-07-25T01:28:50.450Z,3.55
2022-07-25T01:36:25.659Z,2.53
2022-07-25T01:43:59.515Z,2.30
2022-07-25T01:51:34.744Z,3.85
2022-07-25T01:59:08.476Z,2.83
2022-07-25T02:06:43.801Z,2.70
2022-07-25T02:14:17.587Z,3.28
2022-07-25T02:21:52.713Z,4.97
2022-07-25T02:37:01.432Z,3.65
2022-07-25T02:52:12.080Z,4.78
2022-07-25T02:59:45.981Z,2.10
2022-07-25T03:07:21.092Z,2.40
2022-07-25T03:22:29.830Z,2.03
2022-07-25T03:30:03.818Z,2.88
2022-07-25T03:37:39.038Z,3.63
2022-07-25T03:45:12.890Z,5.30
2022-07-25T03:52:48.031Z,3.70
2022-07-25T04:07:57.200Z,4.13
2022-07-25T04:23:06.146Z,4.78
2022-07-25T04:38:15.002Z,2.63
2022-07-25T04:45:49.075Z,6.18
2022-07-25T04:53:24.304Z,3.72
2022-07-25T05:08:33.841Z,4.03
2022-07-25T05:16:09.067Z,5.03
2022-07-25T05:23:44.199Z,3.40
2022-07-25T05:38:54.282Z,3.72
2022-07-25T05:46:28.093Z,3.80
2022-07-25T05:54:03.426Z,3.88
2022-07-25T06:01:37.410Z,5.22
2022-07-25T06:09:12.524Z,6.03
2022-07-25T06:24:21.227Z,5.80
2022-07-25T06:39:30.501Z,6.10
2022-07-25T06:47:05.717Z,7.22
2022-07-25T06:54:40.899Z,5.57
2022-07-25T07:02:14.824Z,5.90
2022-07-25T07:09:49.915Z,8.73
2022-07-25T07:17:23.649Z,9.88
2022-07-25T07:24:58.765Z,7.25
2022-07-25T07:32:33.215Z,7.72
2022-07-25T07:40:17.131Z,6.50
2022-07-25T07:47:53.625Z,9.60
2022-07-25T07:55:48.810Z,10.57
2022-07-25T08:03:22.986Z,11.07
2022-07-25T08:10:59.047Z,9.83
2022-07-25T08:18:34.181Z,9.40
2022-07-25T08:26:09.326Z,11.30
2022-07-25T08:33:43.446Z,8.23
2022-07-25T08:41:18.605Z,10.30
2022-07-25T08:48:59.298Z,8.95
2022-07-25T08:56:34.777Z,9.52
2022-07-25T09:04:10.443Z,9.45
2022-07-25T09:11:45.929Z,10.95
2022-07-25T09:19:22.225Z,9.60
2022-07-25T09:27:00.129Z,9.15
2022-07-25T09:34:36.788Z,10.60
2022-07-25T09:42:21.778Z,11.68
2022-07-25T09:49:55.570Z,10.55
2022-07-25T09:57:30.656Z,11.18
2022-07-25T10:05:13.678Z,11.57
2022-07-25T10:13:09.965Z,10.80
2022-07-25T10:20:45.080Z,11.27
2022-07-25T10:28:21.216Z,11.02
2022-07-25T10:35:55.263Z,11.45
2022-07-25T10:43:30.614Z,12.60
2022-07-25T10:51:08.360Z,10.90
2022-07-25T10:58:50.904Z,10.40
2022-07-25T11:06:32.774Z,10.10
2022-07-25T11:14:16.342Z,9.95
2022-07-25T11:21:52.112Z,9.10
2022-07-25T11:29:28.000Z,9.80
2022-07-25T11:37:04.054Z,10.63
2022-07-25T11:44:47.250Z,10.90
2022-07-25T11:52:23.037Z,9.90
2022-07-25T12:00:00.179Z,10.57
2022-07-25T12:07:44.512Z,9.95
2022-07-25T12:15:21.538Z,10.45
2022-07-25T12:22:57.966Z,10.80
2022-07-25T12:30:35.118Z,10.30
2022-07-25T12:38:09.250Z,11.38
2022-07-25T12:45:44.642Z,10.32
2022-07-25T12:53:18.630Z,9.05
2022-07-25T13:00:58.106Z,11.13
2022-07-25T13:08:37.723Z,9.50
2022-07-25T13:16:13.349Z,9.57
2022-07-25T13:23:47.098Z,10.25
2022-07-25T13:38:57.909Z,9.98
2022-07-25T13:46:33.746Z,9.68
2022-07-25T13:54:07.586Z,10.20
2022-07-25T14:01:44.392Z,10.00
2022-07-25T14:09:18.789Z,10.25
2022-07-25T14:16:55.074Z,8.93
2022-07-25T14:24:28.834Z,8.80
2022-07-25T14:32:04.633Z,9.60
2022-07-25T14:39:38.421Z,9.80
2022-07-25T14:47:15.218Z,9.27
2022-07-25T14:54:49.022Z,8.38
2022-07-25T15:02:24.182Z,8.70
2022-07-25T15:09:57.930Z,9.15
2022-07-25T15:17:34.087Z,8.68
2022-07-25T15:33:03.930Z,8.80
2022-07-25T15:40:37.694Z,8.70
2022-07-25T15:48:15.109Z,11.10
2022-07-25T15:55:48.928Z,8.85
2022-07-25T16:03:24.290Z,10.30
2022-07-25T16:10:58.689Z,8.95
2022-07-25T16:18:33.930Z,9.43
2022-07-25T16:26:08.567Z,8.15
2022-07-25T16:33:43.885Z,8.23
2022-07-25T16:41:17.807Z,8.55
2022-07-25T16:48:53.192Z,9.07
2022-07-25T16:56:27.139Z,9.40
2022-07-25T17:11:36.136Z,9.75
2022-07-25T17:19:11.851Z,9.07
2022-07-25T17:26:45.696Z,9.05
2022-07-25T17:34:22.704Z,9.02
2022-07-25T17:41:57.314Z,8.55
2022-07-25T17:49:32.474Z,8.60
2022-07-25T17:57:07.391Z,6.93
2022-07-25T18:04:42.746Z,6.13
2022-07-25T18:12:16.548Z,8.02
2022-07-25T18:19:51.742Z,8.47
2022-07-25T18:27:25.592Z,7.85
2022-07-25T18:35:01.096Z,7.97
2022-07-25T18:42:35.228Z,8.90
2022-07-25T18:50:11.084Z,9.73
2022-07-25T18:57:45.018Z,8.55
2022-07-25T19:05:20.435Z,7.93
2022-07-25T19:12:54.317Z,9.50
2022-07-25T19:20:29.656Z,7.90
2022-07-25T19:28:05.078Z,7.35
2022-07-25T19:35:40.534Z,7.78
2022-07-25T19:43:14.422Z,7.55
2022-07-25T19:50:50.855Z,8.95
2022-07-25T19:58:24.753Z,8.77
2022-07-25T20:06:03.409Z,6.87
2022-07-25T20:13:40.559Z,6.05
2022-07-25T20:21:18.042Z,8.98
2022-07-25T20:28:52.189Z,8.18
2022-07-25T20:36:27.391Z,9.13
2022-07-25T20:44:01.112Z,14.75
2022-07-25T20:51:37.405Z,12.98
2022-07-25T20:59:11.768Z,9.95
2022-07-25T21:06:47.047Z,13.80
2022-07-25T21:14:22.111Z,10.88
2022-07-25T21:21:57.310Z,8.90
2022-07-25T21:29:31.132Z,10.07
2022-07-25T21:37:06.294Z,7.85
2022-07-25T21:44:40.889Z,10.63
2022-07-25T21:52:16.608Z,10.10
2022-07-25T21:59:50.412Z,8.68
2022-07-25T22:07:25.681Z,10.02
2022-07-25T22:14:59.628Z,10.43
2022-07-25T22:22:34.840Z,9.73
2022-07-25T22:30:13.469Z,10.57
2022-07-25T22:37:53.289Z,13.40
2022-07-25T22:45:27.360Z,12.82
2022-07-25T22:53:02.768Z,14.03
2022-07-25T23:00:36.797Z,13.43
2022-07-25T23:08:11.935Z,13.32
2022-07-25T23:15:50.289Z,11.85
2022-07-25T23:23:26.843Z,12.00
2022-07-25T23:31:00.583Z,11.73
2022-07-25T23:38:37.159Z,11.48
2022-07-25T23:46:11.022Z,11.07
2022-07-25T23:53:47.284Z,11.63
